createdAt,value
2018-01-29T00:00:58.428Z,1.33
2018-01-29T00:03:26.686Z,1.33
2018-01-29T00:05:54.963Z,1.10
2018-01-29T00:08:23.222Z,1.37
2018-01-29T00:10:51.472Z,1.33
2018-01-29T00:13:19.729Z,1.10
2018-01-29T00:15:48.001Z,1.10
2018-01-29T00:18:16.289Z,1.10
2018-01-29T00:20:44.534Z,0.97
2018-01-29T00:23:12.105Z,1.00
2018-01-29T00:25:40.369Z,1.00
2018-01-29T00:28:08.627Z,1.43
2018-01-29T00:30:36.877Z,1.00
2018-01-29T00:33:04.802Z,1.13
2018-01-29T00:35:33.069Z,0.90
2018-01-29T00:38:01.333Z,1.10
2018-01-29T00:40:29.597Z,1.20
2018-01-29T00:42:57.858Z,1.23
2018-01-29T00:45:26.105Z,1.20
2018-01-29T00:47:54.166Z,1.27
2018-01-29T00:50:22.236Z,1.13
2018-01-29T00:52:50.488Z,0.90
2018-01-29T00:55:18.755Z,1.00
2018-01-29T00:57:47.009Z,1.20
2018-01-29T01:00:15.253Z,0.80
2018-01-29T01:02:43.523Z,0.80
2018-01-29T01:05:11.806Z,1.00
2018-01-29T01:07:40.092Z,0.80
2018-01-29T01:10:13.829Z,1.00
2018-01-29T01:12:42.165Z,0.67
2018-01-29T01:15:13.349Z,0.93
2018-01-29T01:17:41.622Z,1.00
2018-01-29T01:20:14.765Z,1.27
2018-01-29T01:22:43.031Z,1.00
2018-01-29T01:25:12.917Z,1.10
2018-01-29T01:27:41.182Z,0.80
2018-01-29T01:30:14.430Z,1.20
2018-01-29T01:32:42.677Z,1.00
2018-01-29T01:35:13.085Z,0.87
2018-01-29T01:37:41.340Z,1.03
2018-01-29T01:40:12.042Z,1.00
2018-01-29T01:42:39.941Z,1.03
2018-01-29T01:45:14.899Z,0.83
2018-01-29T01:47:43.150Z,1.00
2018-01-29T01:50:15.322Z,1.10
2018-01-29T01:52:43.328Z,0.90
2018-01-29T01:55:11.593Z,1.20
2018-01-29T01:57:39.844Z,0.97
2018-01-29T02:00:15.473Z,1.07
2018-01-29T02:02:44.493Z,1.30
2018-01-29T02:05:17.945Z,1.10
2018-01-29T02:07:47.426Z,1.30
2018-01-29T02:10:15.698Z,1.40
2018-01-29T02:12:43.957Z,1.10
2018-01-29T02:15:13.162Z,0.93
2018-01-29T02:17:41.421Z,1.10
2018-01-29T02:20:12.337Z,1.00
2018-01-29T02:22:40.605Z,1.00
2018-01-29T02:25:13.138Z,0.83
2018-01-29T02:27:41.393Z,1.00
2018-01-29T02:30:14.543Z,0.97
2018-01-29T02:32:42.798Z,1.23
2018-01-29T02:35:12.711Z,1.20
2018-01-29T02:37:40.974Z,0.90
2018-01-29T02:40:09.234Z,0.97
2018-01-29T02:42:37.297Z,1.13
2018-01-29T02:45:13.685Z,1.00
2018-01-29T02:47:41.928Z,1.10
2018-01-29T02:50:14.813Z,0.90
2018-01-29T02:52:43.557Z,0.90
2018-01-29T02:55:11.626Z,0.80
2018-01-29T02:57:39.700Z,0.70
2018-01-29T03:00:14.662Z,1.70
2018-01-29T03:02:43.082Z,0.90
2018-01-29T03:05:14.767Z,0.80
2018-01-29T03:07:42.831Z,0.70
2018-01-29T03:10:11.561Z,0.70
2018-01-29T03:12:39.840Z,1.03
2018-01-29T03:15:12.307Z,0.80
2018-01-29T03:17:40.561Z,0.70
2018-01-29T03:20:15.480Z,0.70
2018-01-29T03:22:43.737Z,1.10
2018-01-29T03:25:14.539Z,0.70
2018-01-29T03:27:43.220Z,0.80
2018-01-29T03:30:11.474Z,1.30
2018-01-29T03:32:40.004Z,0.77
2018-01-29T03:35:12.081Z,0.60
2018-01-29T03:37:40.344Z,0.80
2018-01-29T03:40:14.943Z,1.10
2018-01-29T03:42:43.191Z,1.40
2018-01-29T03:45:14.543Z,0.90
2018-01-29T03:47:42.793Z,0.80
2018-01-29T03:50:17.855Z,0.70
2018-01-29T03:52:46.110Z,1.00
2018-01-29T03:55:15.247Z,0.93
2018-01-29T03:57:43.492Z,0.90
2018-01-29T04:00:11.744Z,1.00
2018-01-29T04:02:40.012Z,0.83
2018-01-29T04:05:12.716Z,1.30
2018-01-29T04:07:40.977Z,1.00
2018-01-29T04:10:09.268Z,1.10
2018-01-29T04:12:37.521Z,1.10
2018-01-29T04:15:13.354Z,1.33
2018-01-29T04:17:41.621Z,1.70
2018-01-29T04:20:13.859Z,1.37
2018-01-29T04:22:42.127Z,1.23
2018-01-29T04:25:15.252Z,0.90
2018-01-29T04:27:43.498Z,1.40
2018-01-29T04:30:15.108Z,1.40
2018-01-29T04:32:43.369Z,1.20
2018-01-29T04:35:12.034Z,1.53
2018-01-29T04:37:41.229Z,0.97
2018-01-29T04:40:13.784Z,1.00
2018-01-29T04:42:42.881Z,1.40
2018-01-29T04:45:14.405Z,1.23
2018-01-29T04:47:42.660Z,1.00
2018-01-29T04:50:10.782Z,1.30
2018-01-29T04:52:40.231Z,1.20
2018-01-29T04:55:10.445Z,1.50
2018-01-29T04:57:38.704Z,1.20
2018-01-29T05:00:13.042Z,2.00
2018-01-29T05:02:41.287Z,1.43
2018-01-29T05:05:15.501Z,1.27
2018-01-29T05:07:43.756Z,1.47
2018-01-29T05:10:13.390Z,1.83
2018-01-29T05:12:41.654Z,1.43
2018-01-29T05:15:14.363Z,1.37
2018-01-29T05:17:42.616Z,1.93
2018-01-29T05:20:14.306Z,1.17
2018-01-29T05:22:42.569Z,1.53
2018-01-29T05:25:10.855Z,1.67
2018-01-29T05:27:39.117Z,11.77
2018-01-29T05:30:13.302Z,2.40
2018-01-29T05:32:41.564Z,3.20
2018-01-29T05:35:17.977Z,1.50
2018-01-29T05:38:04.452Z,1.70
2018-01-29T05:40:32.698Z,1.60
2018-01-29T05:43:00.949Z,1.30
2018-01-29T05:45:29.200Z,1.70
2018-01-29T05:47:57.462Z,1.27
2018-01-29T05:50:26.804Z,1.03
2018-01-29T05:52:54.737Z,1.70
2018-01-29T05:55:23.662Z,1.17
2018-01-29T05:57:51.737Z,1.30
2018-01-29T06:00:20.005Z,1.17
2018-01-29T06:02:48.389Z,1.07
2018-01-29T06:05:16.466Z,1.17
2018-01-29T06:07:45.461Z,0.70
2018-01-29T06:10:13.725Z,1.60
2018-01-29T06:12:41.972Z,1.17
2018-01-29T06:15:13.841Z,1.33
2018-01-29T06:17:42.113Z,1.20
2018-01-29T06:20:10.381Z,1.10
2018-01-29T06:22:38.630Z,1.30
2018-01-29T06:25:13.297Z,1.20
2018-01-29T06:27:41.406Z,1.10
2018-01-29T06:30:13.844Z,1.07
2018-01-29T06:32:42.115Z,1.07
2018-01-29T06:35:10.436Z,1.10
2018-01-29T06:37:38.734Z,1.10
2018-01-29T06:40:14.262Z,1.23
2018-01-29T06:42:42.520Z,0.90
2018-01-29T06:45:10.786Z,1.07
2018-01-29T06:47:39.071Z,0.97
2018-01-29T06:50:10.383Z,1.10
2018-01-29T06:52:38.634Z,1.10
2018-01-29T06:55:07.996Z,1.40
2018-01-29T06:57:36.249Z,1.63
2018-01-29T07:00:11.043Z,1.27
2018-01-29T07:02:39.295Z,1.07
2018-01-29T07:05:14.364Z,1.00
2018-01-29T07:07:42.685Z,1.40
2018-01-29T07:10:10.935Z,1.40
2018-01-29T07:12:39.186Z,1.43
2018-01-29T07:15:07.449Z,0.90
2018-01-29T07:17:36.157Z,8.73
2018-01-29T07:20:11.845Z,1.40
2018-01-29T07:22:40.098Z,1.10
2018-01-29T07:25:08.342Z,6.13
2018-01-29T07:27:36.602Z,1.20
2018-01-29T07:32:38.569Z,1.00
2018-01-29T07:35:12.703Z,1.13
2018-01-29T07:37:40.953Z,0.80
2018-01-29T07:40:12.925Z,1.33
2018-01-29T07:42:41.198Z,0.90
2018-01-29T07:45:15.192Z,1.57
2018-01-29T07:47:43.122Z,0.80
2018-01-29T07:50:12.939Z,0.70
2018-01-29T07:52:41.198Z,1.20
2018-01-29T07:55:09.488Z,0.90
2018-01-29T07:57:37.775Z,0.80
2018-01-29T08:00:12.822Z,1.10
2018-01-29T08:02:41.077Z,0.80
2018-01-29T08:05:15.095Z,1.00
2018-01-29T08:07:44.213Z,1.20
2018-01-29T08:10:14.104Z,1.13
2018-01-29T08:12:43.025Z,0.80
2018-01-29T08:15:11.305Z,0.80
2018-01-29T08:17:39.574Z,1.13
2018-01-29T08:20:13.693Z,0.90
2018-01-29T08:22:41.957Z,1.27
2018-01-29T08:25:17.735Z,0.93
2018-01-29T08:27:46.003Z,0.80
2018-01-29T08:30:14.357Z,1.00
2018-01-29T08:32:42.794Z,1.10
2018-01-29T08:35:14.682Z,0.90
2018-01-29T08:37:42.960Z,0.90
2018-01-29T08:40:12.430Z,1.00
2018-01-29T08:42:40.690Z,1.23
2018-01-29T08:45:11.657Z,1.17
2018-01-29T08:47:39.914Z,0.90
2018-01-29T08:50:08.798Z,0.90
2018-01-29T08:52:37.831Z,1.10
2018-01-29T08:55:11.073Z,0.83
2018-01-29T08:57:39.988Z,1.03
2018-01-29T09:00:09.215Z,1.10
2018-01-29T09:02:37.477Z,1.00
2018-01-29T09:05:13.093Z,1.00
2018-01-29T09:07:41.358Z,1.30
2018-01-29T09:10:09.730Z,1.93
2018-01-29T09:12:37.997Z,0.90
2018-01-29T09:15:11.927Z,1.17
2018-01-29T09:17:40.190Z,1.00
2018-01-29T09:20:14.082Z,1.70
2018-01-29T09:22:42.342Z,1.00
2018-01-29T09:25:10.598Z,0.90
2018-01-29T09:27:38.869Z,0.90
2018-01-29T09:30:11.762Z,1.00
2018-01-29T09:32:40.050Z,1.50
2018-01-29T09:35:08.330Z,1.37
2018-01-29T09:37:36.586Z,0.83
2018-01-29T09:40:09.787Z,0.83
2018-01-29T09:42:38.035Z,0.80
2018-01-29T09:45:13.801Z,0.87
2018-01-29T09:47:42.078Z,1.20
2018-01-29T09:50:10.147Z,1.20
2018-01-29T09:52:39.050Z,0.83
2018-01-29T09:55:14.391Z,1.30
2018-01-29T09:57:42.466Z,0.90
2018-01-29T10:00:13.130Z,1.23
2018-01-29T10:02:41.394Z,0.90
2018-01-29T10:05:09.505Z,1.00
2018-01-29T10:07:37.611Z,1.20
2018-01-29T10:10:14.684Z,0.80
2018-01-29T10:12:43.541Z,0.70
2018-01-29T10:15:15.000Z,0.67
2018-01-29T10:17:43.266Z,1.07
2018-01-29T10:20:11.562Z,0.70
2018-01-29T10:22:39.832Z,0.90
2018-01-29T10:25:08.089Z,1.00
2018-01-29T10:27:36.346Z,0.80
2018-01-29T10:30:09.129Z,0.90
2018-01-29T10:32:37.392Z,0.60
2018-01-29T10:35:10.059Z,0.67
2018-01-29T10:37:38.337Z,1.00
2018-01-29T10:40:12.695Z,0.67
2018-01-29T10:42:40.936Z,0.80
2018-01-29T10:45:15.774Z,0.80
2018-01-29T10:47:44.026Z,0.83
2018-01-29T10:50:12.311Z,0.83
2018-01-29T10:52:40.238Z,0.60
2018-01-29T10:55:14.554Z,0.83
2018-01-29T10:57:43.361Z,0.67
2018-01-29T11:00:11.616Z,0.70
2018-01-29T11:02:39.889Z,0.70
2018-01-29T11:05:14.881Z,0.60
2018-01-29T11:07:43.157Z,0.73
2018-01-29T11:10:15.670Z,0.63
2018-01-29T11:12:44.079Z,0.80
2018-01-29T11:15:15.128Z,0.60
2018-01-29T11:17:43.384Z,0.60
2018-01-29T11:20:11.639Z,0.70
2018-01-29T11:22:39.901Z,0.90
2018-01-29T11:25:13.093Z,0.60
2018-01-29T11:27:41.365Z,0.53
2018-01-29T11:30:09.674Z,0.60
2018-01-29T11:32:37.925Z,0.80
2018-01-29T11:35:09.349Z,0.83
2018-01-29T11:37:37.620Z,0.70
2018-01-29T11:40:15.269Z,0.63
2018-01-29T11:42:43.560Z,0.70
2018-01-29T11:45:11.833Z,0.70
2018-01-29T11:47:40.081Z,0.70
2018-01-29T11:50:10.393Z,0.70
2018-01-29T11:52:38.647Z,0.60
2018-01-29T11:55:14.329Z,0.90
2018-01-29T11:57:43.024Z,0.60
2018-01-29T12:00:12.293Z,0.60
2018-01-29T12:02:40.541Z,0.70
2018-01-29T12:05:13.624Z,0.70
2018-01-29T12:07:41.901Z,0.70
2018-01-29T12:10:10.166Z,0.50
2018-01-29T12:12:38.416Z,0.57
2018-01-29T12:15:11.721Z,0.70
2018-01-29T12:17:40.609Z,1.00
2018-01-29T12:20:14.554Z,0.70
2018-01-29T12:22:42.828Z,0.63
2018-01-29T12:25:14.273Z,0.70
2018-01-29T12:27:42.527Z,0.60
2018-01-29T12:30:10.825Z,0.80
2018-01-29T12:32:40.604Z,0.70
2018-01-29T12:35:14.146Z,0.90
2018-01-29T12:37:42.389Z,0.60
2018-01-29T12:40:10.647Z,0.50
2018-01-29T12:42:38.909Z,0.70
2018-01-29T12:45:10.194Z,0.67
2018-01-29T12:47:38.453Z,0.60
2018-01-29T12:50:07.369Z,0.60
2018-01-29T12:52:35.632Z,0.60
2018-01-29T12:55:06.064Z,0.57
2018-01-29T12:57:34.317Z,0.67
2018-01-29T13:00:03.932Z,0.80
2018-01-29T13:02:32.177Z,0.50
2018-01-29T13:05:00.441Z,0.60
2018-01-29T13:07:28.722Z,0.70
2018-01-29T13:09:56.984Z,0.70
2018-01-29T13:12:25.257Z,0.70
2018-01-29T13:14:53.512Z,0.80
2018-01-29T13:17:21.765Z,0.70
2018-01-29T13:19:50.045Z,0.60
2018-01-29T13:22:18.305Z,0.80
2018-01-29T13:24:46.366Z,0.93
2018-01-29T13:27:14.734Z,0.83
2018-01-29T13:29:42.993Z,0.60
2018-01-29T13:32:11.270Z,0.90
2018-01-29T13:34:39.701Z,0.70
2018-01-29T13:37:07.955Z,0.80
2018-01-29T13:39:36.203Z,0.70
2018-01-29T13:42:04.461Z,1.00
2018-01-29T13:44:32.721Z,1.00
2018-01-29T13:47:00.965Z,0.70
2018-01-29T13:49:29.225Z,0.60
2018-01-29T13:51:58.300Z,1.17
2018-01-29T13:54:25.891Z,1.00
2018-01-29T13:56:54.142Z,1.00
2018-01-29T13:59:22.411Z,0.97
2018-01-29T14:01:50.669Z,0.70
2018-01-29T14:04:18.937Z,0.80
2018-01-29T14:06:47.225Z,0.73
2018-01-29T14:09:15.489Z,0.80
2018-01-29T14:11:43.761Z,0.80
2018-01-29T14:14:12.010Z,0.63
2018-01-29T14:16:40.272Z,0.70
2018-01-29T14:19:08.521Z,0.70
2018-01-29T14:21:36.776Z,0.70
2018-01-29T14:24:04.705Z,0.90
2018-01-29T14:26:32.961Z,0.73
2018-01-29T14:29:01.215Z,0.83
2018-01-29T14:31:29.728Z,0.70
2018-01-29T14:33:57.309Z,0.67
2018-01-29T14:36:25.589Z,1.10
2018-01-29T14:38:53.903Z,0.60
2018-01-29T14:41:22.765Z,0.70
2018-01-29T14:43:50.341Z,0.60
2018-01-29T14:46:18.601Z,0.63
2018-01-29T14:48:46.877Z,0.80
2018-01-29T14:51:15.251Z,0.70
2018-01-29T14:53:43.506Z,0.70
2018-01-29T14:56:12.825Z,0.60
2018-01-29T14:58:41.266Z,0.70
2018-01-29T15:01:09.520Z,0.60
2018-01-29T15:03:37.809Z,0.70
2018-01-29T15:06:06.428Z,1.10
2018-01-29T15:08:34.703Z,0.90
2018-01-29T15:11:03.034Z,0.60
2018-01-29T15:13:31.352Z,0.60
2018-01-29T15:16:00.575Z,0.60
2018-01-29T15:18:29.187Z,0.70
2018-01-29T15:20:57.465Z,0.77
2018-01-29T15:23:25.527Z,0.50
2018-01-29T15:25:53.815Z,0.67
2018-01-29T15:28:22.097Z,0.60
2018-01-29T15:30:50.377Z,0.70
2018-01-29T15:33:18.628Z,0.70
2018-01-29T15:35:46.903Z,0.90
2018-01-29T15:38:15.263Z,0.63
2018-01-29T15:40:43.673Z,0.50
2018-01-29T15:43:11.925Z,0.60
2018-01-29T15:45:40.171Z,0.50
2018-01-29T15:48:08.423Z,0.60
2018-01-29T15:50:36.669Z,0.53
2018-01-29T15:53:04.912Z,0.67
2018-01-29T15:55:33.154Z,0.50
2018-01-29T15:58:01.413Z,0.60
2018-01-29T16:00:29.776Z,0.57
2018-01-29T16:02:58.045Z,0.70
2018-01-29T16:05:26.294Z,0.50
2018-01-29T16:07:54.563Z,0.60
2018-01-29T16:10:23.455Z,0.60
2018-01-29T16:12:51.417Z,0.80
2018-01-29T16:15:19.677Z,0.60
2018-01-29T16:17:47.943Z,0.70
2018-01-29T16:20:16.204Z,0.70
2018-01-29T16:22:44.449Z,0.70
2018-01-29T16:25:12.698Z,0.60
2018-01-29T16:27:40.949Z,0.67
2018-01-29T16:30:11.557Z,0.60
2018-01-29T16:32:39.813Z,0.50
2018-01-29T16:35:12.512Z,1.00
2018-01-29T16:37:40.765Z,0.60
2018-01-29T16:40:10.865Z,0.57
2018-01-29T16:42:39.122Z,0.60
2018-01-29T16:45:09.324Z,0.80
2018-01-29T16:47:37.603Z,0.60
2018-01-29T16:50:07.734Z,0.60
2018-01-29T16:52:35.984Z,0.60
2018-01-29T16:55:05.312Z,0.70
2018-01-29T16:57:33.616Z,0.50
2018-01-29T17:00:01.864Z,0.60
2018-01-29T17:02:31.110Z,0.63
2018-01-29T17:04:59.347Z,0.70
2018-01-29T17:07:27.633Z,0.80
2018-01-29T17:09:55.893Z,0.70
2018-01-29T17:12:25.136Z,0.60
2018-01-29T17:14:53.394Z,0.80
2018-01-29T17:17:21.645Z,0.80
2018-01-29T17:19:49.908Z,0.80
2018-01-29T17:22:18.157Z,0.67
2018-01-29T17:24:46.086Z,0.67
2018-01-29T17:27:14.344Z,0.60
2018-01-29T17:29:42.600Z,0.70
2018-01-29T17:32:10.865Z,0.90
2018-01-29T17:34:38.933Z,0.60
2018-01-29T17:37:07.192Z,0.60
2018-01-29T17:39:35.440Z,0.60
2018-01-29T17:42:03.586Z,0.73
2018-01-29T17:44:32.451Z,0.87
2018-01-29T17:47:00.698Z,1.10
2018-01-29T17:49:28.945Z,0.90
2018-01-29T17:51:57.206Z,0.80
2018-01-29T17:54:25.465Z,0.80
2018-01-29T17:56:53.726Z,0.80
2018-01-29T17:59:21.977Z,0.90
2018-01-29T18:01:50.221Z,1.00
2018-01-29T18:04:17.917Z,0.80
2018-01-29T18:06:46.187Z,0.97
2018-01-29T18:09:14.430Z,0.87
2018-01-29T18:11:42.669Z,0.70
2018-01-29T18:14:11.798Z,0.73
2018-01-29T18:16:40.049Z,0.80
2018-01-29T18:19:08.308Z,0.70
2018-01-29T18:21:37.091Z,1.10
2018-01-29T18:24:05.332Z,1.10
2018-01-29T18:26:33.582Z,0.70
2018-01-29T18:29:01.836Z,0.80
2018-01-29T18:31:29.417Z,0.87
2018-01-29T18:33:57.679Z,1.10
2018-01-29T18:36:25.942Z,0.70
2018-01-29T18:38:54.196Z,0.83
2018-01-29T18:41:22.461Z,0.80
2018-01-29T18:43:50.707Z,0.70
2018-01-29T18:46:18.977Z,0.70
2018-01-29T18:48:47.274Z,0.60
2018-01-29T18:51:15.533Z,1.10
2018-01-29T18:53:43.777Z,0.90
2018-01-29T18:56:12.043Z,0.80
2018-01-29T18:58:40.287Z,0.70
2018-01-29T19:01:08.552Z,1.20
2018-01-29T19:03:36.813Z,0.93
2018-01-29T19:06:05.068Z,1.00
2018-01-29T19:08:33.334Z,0.80
2018-01-29T19:11:02.049Z,0.80
2018-01-29T19:13:30.297Z,0.60
2018-01-29T19:15:58.557Z,0.87
2018-01-29T19:18:26.829Z,0.70
2018-01-29T19:20:55.080Z,0.97
2018-01-29T19:23:23.345Z,1.10
2018-01-29T19:25:51.641Z,0.87
2018-01-29T19:28:19.917Z,1.40
2018-01-29T19:30:48.232Z,0.77
2018-01-29T19:33:16.493Z,0.80
2018-01-29T19:35:44.949Z,0.97
2018-01-29T19:38:13.834Z,0.90
2018-01-29T19:40:42.097Z,0.60
2018-01-29T19:43:10.367Z,0.70
2018-01-29T19:45:38.638Z,0.70
2018-01-29T19:48:06.892Z,0.80
2018-01-29T19:50:35.137Z,0.63
2018-01-29T19:53:03.412Z,0.90
2018-01-29T19:55:32.008Z,1.20
2018-01-29T19:58:00.253Z,1.00
2018-01-29T20:00:28.681Z,1.13
2018-01-29T20:02:56.923Z,1.33
2018-01-29T20:05:25.174Z,1.47
2018-01-29T20:07:53.436Z,5.50
2018-01-29T20:10:21.686Z,2.37
2018-01-29T20:12:49.945Z,2.17
2018-01-29T20:15:18.981Z,1.83
2018-01-29T20:17:47.900Z,1.93
2018-01-29T20:20:16.156Z,3.57
2018-01-29T20:22:44.410Z,2.17
2018-01-29T20:25:12.677Z,18.90
2018-01-29T20:27:40.948Z,1.93
2018-01-29T20:30:09.191Z,1.80
2018-01-29T20:32:37.433Z,2.30
2018-01-29T20:35:06.769Z,1.97
2018-01-29T20:37:34.693Z,2.07
2018-01-29T20:40:02.673Z,2.80
2018-01-29T20:42:31.530Z,2.17
2018-01-29T20:44:59.771Z,4.20
2018-01-29T20:47:28.035Z,3.30
2018-01-29T20:49:56.314Z,3.07
2018-01-29T20:52:24.591Z,2.83
2018-01-29T20:54:52.840Z,4.00
2018-01-29T20:57:20.434Z,5.00
2018-01-29T20:59:48.695Z,7.80
2018-01-29T21:02:16.944Z,4.30
2018-01-29T21:04:45.189Z,4.73
2018-01-29T21:07:13.448Z,5.33
2018-01-29T21:09:42.084Z,5.00
2018-01-29T21:12:10.378Z,5.77
2018-01-29T21:14:38.333Z,6.97
2018-01-29T21:17:06.595Z,5.67
2018-01-29T21:19:34.838Z,5.73
2018-01-29T21:22:03.101Z,6.23
2018-01-29T21:24:31.357Z,5.90
2018-01-29T21:26:59.692Z,7.03
2018-01-29T21:29:28.669Z,6.23
2018-01-29T21:31:56.040Z,7.03
2018-01-29T21:34:24.293Z,7.67
2018-01-29T21:36:52.556Z,6.60
2018-01-29T21:39:20.801Z,6.50
2018-01-29T21:41:49.054Z,6.17
2018-01-29T21:44:17.343Z,5.97
2018-01-29T21:46:45.773Z,6.40
2018-01-29T21:49:14.028Z,6.00
2018-01-29T21:51:42.292Z,6.43
2018-01-29T21:54:10.566Z,6.90
2018-01-29T21:56:38.833Z,6.57
2018-01-29T21:59:07.086Z,6.43
2018-01-29T22:01:35.357Z,7.70
2018-01-29T22:04:03.779Z,7.03
2018-01-29T22:06:32.639Z,9.60
2018-01-29T22:09:00.922Z,9.73
2018-01-29T22:11:29.205Z,10.67
2018-01-29T22:13:57.462Z,10.80
2018-01-29T22:16:25.068Z,13.30
2018-01-29T22:18:53.383Z,13.67
2018-01-29T22:21:21.638Z,14.10
2018-01-29T22:23:49.913Z,14.07
2018-01-29T22:26:18.242Z,13.60
2018-01-29T22:28:46.538Z,12.97
2018-01-29T22:31:14.785Z,12.90
2018-01-29T22:33:43.049Z,11.13
2018-01-29T22:36:12.771Z,10.67
2018-01-29T22:38:41.037Z,8.57
2018-01-29T22:41:09.306Z,9.67
2018-01-29T22:43:37.577Z,8.23
2018-01-29T22:46:05.539Z,7.50
2018-01-29T22:48:33.804Z,7.17
2018-01-29T22:51:01.725Z,6.87
2018-01-29T22:53:30.086Z,7.47
2018-01-29T22:55:58.268Z,7.80
2018-01-29T22:58:26.516Z,7.30
2018-01-29T23:00:54.810Z,6.63
2018-01-29T23:03:23.080Z,6.43
2018-01-29T23:05:50.985Z,6.60
2018-01-29T23:08:19.233Z,5.63
2018-01-29T23:10:47.555Z,5.70
2018-01-29T23:13:16.182Z,6.73
2018-01-29T23:15:44.433Z,6.73
2018-01-29T23:18:13.196Z,5.73
2018-01-29T23:20:41.797Z,6.10
2018-01-29T23:23:11.577Z,5.47
2018-01-29T23:25:39.830Z,6.17
2018-01-29T23:28:08.093Z,6.37
2018-01-29T23:30:36.359Z,7.13
2018-01-29T23:33:04.613Z,6.00
2018-01-29T23:35:32.881Z,6.37
2018-01-29T23:38:01.946Z,7.10
2018-01-29T23:40:30.197Z,7.00
2018-01-29T23:42:59.313Z,6.37
2018-01-29T23:45:27.560Z,6.80
2018-01-29T23:47:55.833Z,6.97
2018-01-29T23:50:24.107Z,7.20
2018-01-29T23:52:53.244Z,6.43
2018-01-29T23:55:21.495Z,5.90
2018-01-29T23:57:49.814Z,6.93
